Airport ID:KMIO
Update Time (UTC):01/12/2022 15:39
Wind Speed (Knots):17
Wind Direction (Magnetic):160
Temperature (°C):6
Dew Point (°C):-6
Humidity (%):42
Altimeter (inHg):30.38
Density Altitude (Feet):
Visibility:10+
Clouds (Hundreds of feet):CLR
Present Weather:
METAR:METAR KMIO 011535Z AUTO 16016KT 10SM CLR 06/M06 A3038 RMK AO2

The data displayed is for advisory purposes only and is not to be used for flight planning or operations.